Time;durP1;ratioP1;P1;durP2;ratioP2;P2;SDS_P1;SDS_P2;PMS_P1;PMS_P2;Temp;Humidity;BMP_temperature;BMP_pressure;BME280_temperature;BME280_humidity;BME280_pressure;Samples;Min_cycle;Max_cycle;Signal;HPM_P1;HPM_P2
2022/01/25 00:08:53;;;;;;;17.77;13.10;;;4.50;64.80;;;-142.21;100.00;112049.66;6275398;22;20309;-79
2022/01/25 00:25:42;;;;;;;16.20;10.98;;;4.20;65.70;;;-142.21;100.00;112049.66;6276713;22;20230;-79
2022/01/25 00:28:19;;;;;;;18.00;13.15;;;4.20;66.00;;;-142.21;100.00;112049.66;6276300;22;20205;-79
2022/01/25 00:30:59;;;;;;;16.00;12.73;;;4.20;66.50;;;-142.21;100.00;112049.66;6276383;22;20210;-79
2022/01/25 00:33:28;;;;;;;14.40;11.30;;;4.10;66.40;;;-142.21;100.00;112049.66;6276478;22;20243;-80
2022/01/25 00:35:56;;;;;;;13.77;10.75;;;4.20;66.10;;;-142.21;100.00;112049.66;6276424;22;20184;-79
2022/01/25 00:38:24;;;;;;;14.65;10.82;;;4.20;66.10;;;-142.21;100.00;112049.66;6275793;22;20203;-79
2022/01/25 00:40:53;;;;;;;17.33;12.38;;;4.20;66.10;;;-142.21;100.00;112049.66;6276355;22;20176;-79
2022/01/25 00:43:23;;;;;;;15.52;11.25;;;4.30;65.60;;;-142.21;100.00;112049.66;6276682;22;20545;-78
2022/01/25 00:45:54;;;;;;;16.17;12.05;;;4.30;65.30;;;-142.21;100.00;112049.66;6276988;22;20252;-78
2022/01/25 00:48:32;;;;;;;20.63;13.60;;;4.20;65.40;;;-142.21;100.00;112049.66;6276845;22;20227;-77
2022/01/25 00:51:16;;;;;;;16.48;12.43;;;4.00;65.80;;;-142.21;100.00;112049.66;6276170;22;20200;-80
2022/01/25 00:53:56;;;;;;;18.45;11.57;;;4.00;66.40;;;-142.21;100.00;112049.66;6275167;22;20196;-79
2022/01/25 00:56:29;;;;;;;13.30;9.93;;;4.00;66.10;;;-142.21;100.00;112049.66;6276644;22;20176;-80
2022/01/25 00:58:56;;;;;;;14.55;11.02;;;4.10;66.00;;;-142.21;100.00;112049.66;6275664;22;20168;-79
2022/01/25 01:01:25;;;;;;;13.90;10.27;;;4.10;65.30;;;-142.21;100.00;112049.66;6275190;22;20180;-79
2022/01/25 01:03:52;;;;;;;16.10;11.63;;;4.10;65.30;;;-142.21;100.00;112049.66;6274890;22;20284;-78
2022/01/25 01:06:21;;;;;;;12.13;10.80;;;4.10;64.90;;;-142.21;100.00;112049.66;6275178;22;20176;-79
2022/01/25 01:08:50;;;;;;;13.80;10.80;;;4.10;65.00;;;-142.21;100.00;112049.66;6274709;22;20242;-79
2022/01/25 01:11:25;;;;;;;16.75;11.27;;;4.00;64.80;;;-142.21;100.00;112049.66;6276730;22;20176;-78
2022/01/25 01:14:01;;;;;;;14.70;10.73;;;4.10;65.40;;;-142.21;100.00;112049.66;6278753;22;20168;-78
2022/01/25 01:30:47;;;;;;;12.95;10.00;;;3.90;64.40;;;-142.21;100.00;112049.66;6155822;23;20611;-79
2022/01/25 01:42:00;;;;;;;13.77;10.18;;;3.70;64.20;;;-142.21;100.00;112049.66;6226498;22;20173;-78
2022/01/25 01:44:38;;;;;;;16.02;10.80;;;3.70;64.50;;;-142.21;100.00;112049.66;6278662;22;20168;-78
2022/01/25 01:47:12;;;;;;;13.65;10.70;;;3.50;65.20;;;-142.21;100.00;112049.66;6200685;22;20274;-78
2022/01/25 01:49:43;;;;;;;15.27;10.65;;;3.60;65.10;;;-142.21;100.00;112049.66;6279294;22;20262;-77
2022/01/25 01:52:12;;;;;;;16.40;11.75;;;3.60;64.90;;;-142.21;100.00;112049.66;6278022;22;20176;-77
2022/01/25 01:54:46;;;;;;;17.30;11.43;;;3.60;65.10;;;-142.21;100.00;112049.66;6278492;22;20234;-78
2022/01/25 01:57:14;;;;;;;16.70;12.68;;;3.60;64.90;;;-142.21;100.00;112049.66;6278198;22;20168;-78
2022/01/25 01:59:41;;;;;;;16.63;11.98;;;3.50;64.70;;;-142.21;100.00;112049.66;6277753;22;20540;-77
2022/01/25 02:02:10;;;;;;;16.40;11.70;;;3.50;64.70;;;-142.21;100.00;112049.66;6277663;22;20226;-79
2022/01/25 02:04:37;;;;;;;16.88;12.35;;;3.50;65.00;;;-142.21;100.00;112049.66;6277391;22;20183;-79
2022/01/25 02:07:11;;;;;;;14.57;11.93;;;3.60;65.10;;;-142.21;100.00;112049.66;6278061;22;20230;-79
2022/01/25 02:09:38;;;;;;;13.45;10.80;;;3.60;64.70;;;-142.21;100.00;112049.66;6276982;22;20246;-78
2022/01/25 02:12:08;;;;;;;14.65;11.13;;;3.50;64.50;;;-142.21;100.00;112049.66;6277378;22;20176;-78
2022/01/25 02:14:37;;;;;;;15.60;12.13;;;3.50;65.20;;;-142.21;100.00;112049.66;6276843;22;20180;-77
2022/01/25 02:17:12;;;;;;;17.75;11.60;;;3.40;64.80;;;-142.21;100.00;112049.66;6276916;22;20187;-79
2022/01/25 02:22:34;;;;;;;14.15;11.63;;;3.60;65.00;;;-142.21;100.00;112049.66;6277783;22;20244;-79
2022/01/25 02:25:04;;;;;;;16.40;12.15;;;3.60;65.00;;;-142.21;100.00;112049.66;6278049;22;20188;-80
2022/01/25 02:42:18;;;;;;;12.98;10.50;;;3.30;66.30;;;-142.21;100.00;112049.66;6278206;22;20227;-79
2022/01/25 02:44:46;;;;;;;15.52;11.20;;;3.20;65.90;;;-142.21;100.00;112049.66;6278901;22;20184;-80
2022/01/25 02:50:00;;;;;;;11.90;9.55;;;3.30;65.50;;;-142.21;100.00;112049.66;6281770;22;20231;-81
2022/01/25 02:52:29;;;;;;;13.75;9.77;;;3.40;65.60;;;-142.21;100.00;112049.66;6286571;22;20232;-80
2022/01/25 02:54:56;;;;;;;12.18;10.20;;;3.40;65.30;;;-142.21;100.00;112049.66;6284714;22;20176;-80
2022/01/25 02:57:28;;;;;;;14.80;11.30;;;3.40;65.00;;;-142.21;100.00;112049.66;6282202;22;20173;-82
2022/01/25 02:59:55;;;;;;;15.38;10.88;;;3.40;65.20;;;-142.21;100.00;112049.66;6286835;22;20169;-83
2022/01/25 03:02:26;;;;;;;16.27;10.93;;;3.40;64.50;;;-142.21;100.00;112049.66;6289233;22;20176;-81
2022/01/25 03:04:54;;;;;;;16.48;12.00;;;3.30;64.90;;;-142.21;100.00;112049.66;6291058;22;20185;-81
2022/01/25 03:07:21;;;;;;;13.98;11.23;;;3.20;64.40;;;-142.21;100.00;112049.66;6278245;22;20248;-80
2022/01/25 03:09:48;;;;;;;15.82;11.63;;;3.30;64.70;;;-142.21;100.00;112049.66;6278248;22;20192;-80
2022/01/25 03:12:19;;;;;;;14.57;10.55;;;3.20;64.40;;;-142.21;100.00;112049.66;6278675;22;20651;-80
2022/01/25 03:15:10;;;;;;;12.55;10.25;;;3.10;64.30;;;-142.21;100.00;112049.66;6277998;22;20231;-79
2022/01/25 03:17:44;;;;;;;14.40;9.88;;;3.20;64.40;;;-142.21;100.00;112049.66;6277920;22;20176;-79
2022/01/25 03:20:19;;;;;;;13.73;10.38;;;3.20;64.10;;;-142.21;100.00;112049.66;6277991;22;20170;-78
2022/01/25 03:22:58;;;;;;;13.73;10.63;;;3.30;64.20;;;-142.21;100.00;112049.66;6278247;22;20168;-79
2022/01/25 03:25:27;;;;;;;13.57;11.18;;;3.20;63.90;;;-142.21;100.00;112049.66;6279213;22;20521;-79
2022/01/25 03:27:55;;;;;;;13.55;10.98;;;3.30;64.40;;;-142.21;100.00;112049.66;6278439;22;20176;-79
2022/01/25 03:30:24;;;;;;;15.07;11.65;;;3.10;64.10;;;-142.21;100.00;112049.66;6278562;22;20169;-78
2022/01/25 03:32:52;;;;;;;13.57;10.93;;;3.10;64.10;;;-142.21;100.00;112049.66;6279022;22;20177;-79
2022/01/25 03:35:20;;;;;;;13.77;10.40;;;3.10;64.50;;;-142.21;100.00;112049.66;6278449;22;20633;-78
2022/01/25 03:37:47;;;;;;;14.65;10.75;;;3.00;64.20;;;-142.21;100.00;112049.66;6278197;22;20176;-79
2022/01/25 03:40:15;;;;;;;15.40;10.43;;;2.90;64.10;;;-142.21;100.00;112049.66;6278159;22;20176;-80
2022/01/25 03:42:44;;;;;;;14.40;10.63;;;2.90;64.50;;;-142.21;100.00;112049.66;6277520;22;20222;-79
2022/01/25 03:45:20;;;;;;;14.45;11.02;;;2.90;64.20;;;-142.21;100.00;112049.66;6277593;22;20176;-81
2022/01/25 03:48:00;;;;;;;13.90;10.10;;;2.90;64.40;;;-142.21;100.00;112049.66;6277362;22;20215;-79
2022/01/25 03:50:27;;;;;;;15.00;10.50;;;2.90;64.50;;;-142.21;100.00;112049.66;6277076;22;20161;-80
2022/01/25 03:52:54;;;;;;;13.30;11.20;;;2.90;64.40;;;-142.21;100.00;112049.66;6276796;22;20539;-80
2022/01/25 03:55:22;;;;;;;15.25;10.63;;;3.00;64.60;;;-142.21;100.00;112049.66;6277380;22;20180;-80
2022/01/25 03:57:49;;;;;;;14.80;11.15;;;2.80;64.60;;;-142.21;100.00;112049.66;6277207;22;20177;-80
2022/01/25 04:00:18;;;;;;;16.33;11.45;;;2.80;64.80;;;-142.21;100.00;112049.66;6277424;22;20597;-79
2022/01/25 04:02:52;;;;;;;13.90;11.32;;;2.70;64.80;;;-142.21;100.00;112049.66;6277488;22;20173;-80
2022/01/25 04:05:24;;;;;;;14.68;11.27;;;2.70;64.80;;;-142.21;100.00;112049.66;6277748;22;20187;-80
2022/01/25 04:07:52;;;;;;;15.13;11.07;;;2.80;64.40;;;-142.21;100.00;112049.66;6277507;22;20173;-81
2022/01/25 04:10:21;;;;;;;14.88;11.50;;;2.90;64.00;;;-142.21;100.00;112049.66;6277670;22;20196;-80
2022/01/25 04:12:49;;;;;;;13.88;10.35;;;2.90;64.20;;;-142.21;100.00;112049.66;6277944;22;20180;-80
2022/01/25 04:15:17;;;;;;;14.45;10.57;;;2.80;63.80;;;-142.21;100.00;112049.66;6276732;22;20222;-81
2022/01/25 04:17:49;;;;;;;11.30;9.23;;;2.70;64.00;;;-142.21;100.00;112049.66;6277379;22;20182;-80
2022/01/25 04:20:22;;;;;;;16.15;11.48;;;2.80;64.40;;;-142.21;100.00;112049.66;6277659;22;20164;-80
2022/01/25 04:25:38;;;;;;;13.25;9.82;;;2.80;64.70;;;-142.21;100.00;112049.66;6277719;22;20587;-79
2022/01/25 04:28:06;;;;;;;13.43;9.65;;;2.80;64.50;;;-142.21;100.00;112049.66;6277010;22;20238;-78
2022/01/25 04:30:33;;;;;;;14.95;9.68;;;2.80;64.70;;;-142.21;100.00;112049.66;6277509;22;20196;-80
2022/01/25 04:33:04;;;;;;;13.75;10.27;;;2.80;64.60;;;-142.21;100.00;112049.66;6278045;22;20176;-80
2022/01/25 04:35:56;;;;;;;14.93;11.70;;;2.80;64.80;;;-142.21;100.00;112049.66;6278058;22;20169;-80
2022/01/25 04:49:28;;;;;;;14.13;10.95;;;3.00;64.30;;;-142.21;100.00;112049.66;6280219;22;20199;-80
2022/01/25 04:52:01;;;;;;;16.50;10.60;;;2.80;64.30;;;-142.21;100.00;112049.66;6279556;22;20501;-80
2022/01/25 04:54:43;;;;;;;12.73;10.18;;;2.70;64.10;;;-142.21;100.00;112049.66;6279595;22;20687;-81
2022/01/25 04:57:26;;;;;;;14.45;10.80;;;2.80;64.60;;;-142.21;100.00;112049.66;6280022;22;20168;-80
2022/01/25 05:00:01;;;;;;;14.02;9.60;;;2.80;64.60;;;-142.21;100.00;112049.66;6279178;22;20191;-79
2022/01/25 05:02:38;;;;;;;15.20;11.05;;;2.80;64.40;;;-142.21;100.00;112049.66;6279177;22;20172;-79
2022/01/25 05:05:12;;;;;;;12.60;9.57;;;2.70;64.40;;;-142.21;100.00;112049.66;6279117;22;20180;-79
2022/01/25 05:07:46;;;;;;;13.65;10.20;;;2.70;65.00;;;-142.21;100.00;112049.66;6280212;22;20494;-81
2022/01/25 05:10:18;;;;;;;15.52;11.23;;;2.70;64.70;;;-142.21;100.00;112049.66;6279563;22;20488;-79
2022/01/25 05:12:52;;;;;;;12.98;10.07;;;2.80;64.40;;;-142.21;100.00;112049.66;6278914;22;20183;-80
2022/01/25 05:15:49;;;;;;;14.20;10.32;;;2.70;64.50;;;-142.21;100.00;112049.66;6279328;22;20176;-80
2022/01/25 05:18:14;;;;;;;14.05;10.60;;;2.60;64.70;;;-142.21;100.00;112049.66;6279204;22;20172;-79
2022/01/25 05:23:30;;;;;;;14.35;10.88;;;2.50;64.70;;;-142.21;100.00;112049.66;6280068;22;20164;-81
2022/01/25 05:25:59;;;;;;;12.30;9.98;;;2.50;64.50;;;-142.21;100.00;112049.66;6279830;22;20180;-81
2022/01/25 05:28:26;;;;;;;13.77;11.30;;;2.60;64.40;;;-142.21;100.00;112049.66;6279838;22;20206;-81
2022/01/25 05:30:54;;;;;;;12.35;10.35;;;2.70;64.70;;;-142.21;100.00;112049.66;6278708;22;20242;-80
2022/01/25 05:33:22;;;;;;;11.85;9.50;;;2.60;64.50;;;-142.21;100.00;112049.66;6278679;22;20257;-81
2022/01/25 05:36:46;;;;;;;12.18;10.00;;;2.70;64.00;;;-142.21;100.00;112049.66;6279506;22;20177;-81
2022/01/25 05:39:17;;;;;;;12.80;9.82;;;2.70;64.40;;;-142.21;100.00;112049.66;6277989;22;20629;-80
2022/01/25 05:41:54;;;;;;;12.52;8.80;;;2.70;63.30;;;-142.21;100.00;112049.66;6279255;22;20196;-80
2022/01/25 05:44:23;;;;;;;12.88;9.90;;;2.80;63.30;;;-142.21;100.00;112049.66;6279756;22;20165;-80
2022/01/25 05:47:04;;;;;;;15.32;10.27;;;2.90;64.20;;;-142.21;100.00;112049.66;6279010;22;20213;-81
2022/01/25 05:49:32;;;;;;;13.50;10.80;;;2.70;63.80;;;-142.21;100.00;112049.66;6279273;22;20248;-79
2022/01/25 05:52:00;;;;;;;15.82;10.05;;;2.60;64.20;;;-142.21;100.00;112049.66;6279274;22;20196;-81
2022/01/25 05:54:28;;;;;;;13.40;11.60;;;2.50;64.30;;;-142.21;100.00;112049.66;6278821;22;20271;-81
2022/01/25 05:56:57;;;;;;;13.27;10.50;;;2.40;64.20;;;-142.21;100.00;112049.66;6279437;22;20180;-80
2022/01/25 05:59:25;;;;;;;13.10;10.38;;;2.40;64.70;;;-142.21;100.00;112049.66;6278911;22;20168;-80
2022/01/25 06:01:52;;;;;;;17.63;11.93;;;2.40;64.60;;;-142.21;100.00;112049.66;6279498;22;20188;-80
2022/01/25 06:04:23;;;;;;;17.73;12.77;;;2.50;64.50;;;-142.21;100.00;112049.66;6279423;22;20173;-81
2022/01/25 06:06:50;;;;;;;13.70;11.73;;;2.50;65.10;;;-142.21;100.00;112049.66;6278287;22;20180;-81
2022/01/25 06:09:18;;;;;;;17.40;11.90;;;2.50;65.00;;;-142.21;100.00;112049.66;6277871;22;20203;-81
2022/01/25 06:11:45;;;;;;;18.92;11.38;;;2.60;65.30;;;-142.21;100.00;112049.66;6278618;22;20692;-81
2022/01/25 06:14:14;;;;;;;19.48;11.65;;;2.60;65.00;;;-142.21;100.00;112049.66;6278600;22;20204;-81
2022/01/25 06:16:42;;;;;;;18.25;12.45;;;2.70;65.10;;;-142.21;100.00;112049.66;6277818;22;20636;-79
2022/01/25 06:19:10;;;;;;;15.18;11.93;;;2.80;65.00;;;-142.21;100.00;112049.66;6277576;22;20168;-78
2022/01/25 06:21:38;;;;;;;19.63;13.15;;;2.80;64.60;;;-142.21;100.00;112049.66;6278111;22;20176;-79
2022/01/25 06:24:06;;;;;;;16.33;11.10;;;2.90;64.80;;;-142.21;100.00;112049.66;6277641;22;20172;-81
2022/01/25 06:26:34;;;;;;;15.55;11.45;;;2.90;65.20;;;-142.21;100.00;112049.66;6278235;22;20177;-79
2022/01/25 06:29:01;;;;;;;12.73;10.90;;;2.80;64.90;;;-142.21;100.00;112049.66;6277198;22;20172;-81
2022/01/25 06:31:31;;;;;;;14.63;10.63;;;2.80;64.70;;;-142.21;100.00;112049.66;6277132;22;20509;-79
2022/01/25 06:33:59;;;;;;;14.43;10.40;;;3.00;65.00;;;-142.21;100.00;112049.66;6277739;22;20232;-78
2022/01/25 06:36:27;;;;;;;14.55;10.85;;;2.90;65.00;;;-142.21;100.00;112049.66;6276730;22;20255;-80
2022/01/25 06:38:54;;;;;;;19.70;11.63;;;2.90;65.40;;;-142.21;100.00;112049.66;6284174;22;20176;-81
2022/01/25 06:41:21;;;;;;;21.52;11.75;;;2.90;65.50;;;-142.21;100.00;112049.66;6283009;22;20183;-80
2022/01/25 06:43:48;;;;;;;18.95;11.18;;;2.80;65.90;;;-142.21;100.00;112049.66;6277936;22;20230;-81
2022/01/25 06:46:16;;;;;;;25.35;13.75;;;2.80;66.10;;;-142.21;100.00;112049.66;6284008;22;20244;-79
2022/01/25 06:48:44;;;;;;;49.40;16.85;;;2.70;66.60;;;-142.21;100.00;112049.66;6288910;22;20177;-81
2022/01/25 06:51:12;;;;;;;39.03;15.75;;;2.70;67.60;;;-142.21;100.00;112049.66;6280115;22;20219;-79
2022/01/25 06:53:39;;;;;;;38.60;15.93;;;2.70;67.50;;;-142.21;100.00;112049.66;6277561;22;20679;-77
2022/01/25 06:56:07;;;;;;;30.48;15.38;;;2.90;67.80;;;-142.21;100.00;112049.66;6277416;22;20261;-77
2022/01/25 06:58:34;;;;;;;78.05;24.92;;;2.90;67.70;;;-142.21;100.00;112049.66;6278990;22;20177;-78
2022/01/25 07:01:05;;;;;;;162.15;27.48;;;3.00;68.10;;;-142.21;100.00;112049.66;6276594;22;20173;-80
2022/01/25 07:03:35;;;;;;;108.97;26.90;;;2.90;68.20;;;-142.21;100.00;112049.66;6276370;22;20500;-79
2022/01/25 07:06:04;;;;;;;77.00;23.58;;;2.90;68.80;;;-142.21;100.00;112049.66;6277501;22;20177;-81
2022/01/25 07:08:32;;;;;;;221.85;37.60;;;2.90;69.10;;;-142.21;100.00;112049.66;6249487;22;20177;-78
2022/01/25 07:10:59;;;;;;;149.07;28.75;;;2.80;69.50;;;-142.21;100.00;112049.66;6278168;22;20196;-78
2022/01/25 07:13:27;;;;;;;73.00;20.25;;;2.80;69.70;;;-142.21;100.00;112049.66;6276730;22;20172;-77
2022/01/25 07:15:54;;;;;;;105.10;25.63;;;2.80;69.90;;;-142.21;100.00;112049.66;6276600;22;20251;-78
2022/01/25 07:18:21;;;;;;;130.73;22.88;;;2.80;69.80;;;-142.21;100.00;112049.66;6277012;22;20196;-79
2022/01/25 07:20:49;;;;;;;74.72;18.73;;;2.80;69.80;;;-142.21;100.00;112049.66;6276902;22;20172;-83
2022/01/25 07:23:17;;;;;;;218.35;31.75;;;2.90;70.00;;;-142.21;100.00;112049.66;6278543;22;20172;-82
2022/01/25 07:25:45;;;;;;;162.63;24.33;;;2.80;70.10;;;-142.21;100.00;112049.66;6278206;22;20251;-83
2022/01/25 07:28:12;;;;;;;66.03;18.85;;;2.90;70.20;;;-142.21;100.00;112049.66;6278825;22;20189;-84
2022/01/25 07:30:39;;;;;;;131.35;24.20;;;2.90;70.00;;;-142.21;100.00;112049.66;6277969;22;20204;-83
2022/01/25 07:33:07;;;;;;;44.72;16.33;;;3.00;69.80;;;-142.21;100.00;112049.66;6278193;22;20613;-83
2022/01/25 07:35:35;;;;;;;68.35;19.48;;;3.00;69.70;;;-142.21;100.00;112049.66;6277847;22;20192;-83
2022/01/25 07:38:05;;;;;;;62.67;21.52;;;3.00;69.60;;;-142.21;100.00;112049.66;6277897;22;20177;-83
2022/01/25 07:40:36;;;;;;;58.15;22.58;;;3.20;69.60;;;-142.21;100.00;112049.66;6278505;22;20230;-83
2022/01/25 07:43:04;;;;;;;33.25;16.55;;;3.10;69.00;;;-142.21;100.00;112049.66;6278241;22;20169;-82
2022/01/25 07:45:35;;;;;;;39.30;18.00;;;3.10;69.00;;;-142.21;100.00;112049.66;6278210;22;20250;-83
2022/01/25 07:48:03;;;;;;;31.77;17.95;;;3.20;68.80;;;-142.21;100.00;112049.66;6278310;22;20207;-82
2022/01/25 07:50:31;;;;;;;36.78;19.70;;;3.20;68.50;;;-142.21;100.00;112049.66;6277967;22;20192;-82
2022/01/25 07:52:58;;;;;;;31.20;18.85;;;3.20;68.40;;;-142.21;100.00;112049.66;6278432;22;20177;-83
2022/01/25 07:55:26;;;;;;;33.67;17.92;;;3.30;68.30;;;-142.21;100.00;112049.66;6277905;22;20197;-81
2022/01/25 07:57:55;;;;;;;25.27;14.75;;;3.40;68.30;;;-142.21;100.00;112049.66;6278124;22;20206;-83
2022/01/25 08:00:23;;;;;;;22.38;14.50;;;3.50;67.70;;;-142.21;100.00;112049.66;6278604;22;20609;-81
2022/01/25 08:02:51;;;;;;;20.63;14.70;;;3.60;67.20;;;-142.21;100.00;112049.66;6279400;22;20177;-81
2022/01/25 08:05:25;;;;;;;21.10;14.15;;;3.60;66.90;;;-142.21;100.00;112049.66;6278755;22;20180;-83
2022/01/25 08:07:53;;;;;;;23.35;14.75;;;3.70;67.10;;;-142.21;100.00;112049.66;6277831;22;20169;-82
2022/01/25 08:10:21;;;;;;;21.27;14.07;;;3.60;67.00;;;-142.21;100.00;112049.66;6277452;22;20663;-82
2022/01/25 08:12:49;;;;;;;27.92;14.65;;;3.60;67.20;;;-142.21;100.00;112049.66;6278685;22;20177;-83
2022/01/25 08:15:18;;;;;;;24.52;15.00;;;3.60;67.60;;;-142.21;100.00;112049.66;6277409;22;20509;-84
2022/01/25 08:17:45;;;;;;;18.70;12.20;;;3.70;67.60;;;-142.21;100.00;112049.66;6276990;22;20180;-83
2022/01/25 08:20:13;;;;;;;18.48;12.80;;;3.90;67.10;;;-142.21;100.00;112049.66;6277351;22;20192;-82
2022/01/25 08:22:44;;;;;;;21.88;13.25;;;3.90;66.70;;;-142.21;100.00;112049.66;6251142;22;20184;-82
2022/01/25 08:25:12;;;;;;;22.05;14.80;;;4.00;66.00;;;-142.21;100.00;112049.66;6277913;22;20185;-83
2022/01/25 08:27:40;;;;;;;23.05;13.63;;;4.20;65.50;;;-142.21;100.00;112049.66;6276831;22;20199;-81
2022/01/25 08:30:09;;;;;;;18.42;13.23;;;4.30;65.40;;;-142.21;100.00;112049.66;6276613;22;20212;-82
2022/01/25 08:32:38;;;;;;;20.27;12.25;;;4.60;65.90;;;-142.21;100.00;112049.66;6275889;22;20490;-80
2022/01/25 08:35:07;;;;;;;18.70;12.77;;;4.90;65.20;;;-142.21;100.00;112049.66;6277322;22;20179;-82
2022/01/25 08:37:34;;;;;;;21.65;12.93;;;5.10;63.60;;;-142.21;100.00;112049.66;6277047;22;20173;-82
2022/01/25 08:40:03;;;;;;;18.52;12.65;;;5.10;63.60;;;-142.21;100.00;112049.66;6276622;22;20173;-81
2022/01/25 08:42:30;;;;;;;19.05;12.45;;;5.00;64.10;;;-142.21;100.00;112049.66;6277139;22;20173;-81
2022/01/25 08:44:58;;;;;;;15.93;12.00;;;4.80;64.30;;;-142.21;100.00;112049.66;6277030;22;20177;-81
2022/01/25 08:47:26;;;;;;;16.85;11.48;;;4.70;65.40;;;-142.21;100.00;112049.66;6276436;22;20208;-80
2022/01/25 08:49:56;;;;;;;16.80;11.27;;;4.70;65.50;;;-142.21;100.00;112049.66;6249926;22;20208;-82
2022/01/25 08:52:23;;;;;;;17.90;11.95;;;4.70;65.80;;;-142.21;100.00;112049.66;6276622;22;20614;-81
2022/01/25 08:54:51;;;;;;;17.75;13.18;;;4.80;66.30;;;-142.21;100.00;112049.66;6276382;22;20242;-81
2022/01/25 08:57:19;;;;;;;17.85;12.93;;;4.90;66.30;;;-142.21;100.00;112049.66;6276030;22;20203;-81
2022/01/25 08:59:46;;;;;;;16.98;12.30;;;5.00;66.20;;;-142.21;100.00;112049.66;6275269;22;20203;-80
2022/01/25 09:02:14;;;;;;;12.38;10.93;;;5.10;66.90;;;-142.21;100.00;112049.66;6276173;22;20172;-80
2022/01/25 09:04:44;;;;;;;17.77;13.00;;;5.20;66.00;;;-142.21;100.00;112049.66;6275969;22;20219;-80
2022/01/25 09:07:13;;;;;;;18.10;12.80;;;5.30;66.00;;;-142.21;100.00;112049.66;6276050;22;20180;-80
2022/01/25 09:09:41;;;;;;;17.73;13.20;;;5.30;66.00;;;-142.21;100.00;112049.66;6275839;22;20183;-81
2022/01/25 09:12:11;;;;;;;15.95;12.60;;;5.40;66.00;;;-142.21;100.00;112049.66;6276793;22;20189;-81
2022/01/25 09:14:38;;;;;;;17.48;13.65;;;5.50;66.00;;;-142.21;100.00;112049.66;6276553;22;20313;-81
2022/01/25 09:17:09;;;;;;;19.75;14.40;;;5.60;65.50;;;-142.21;100.00;112049.66;6275899;22;20192;-82
2022/01/25 09:19:38;;;;;;;18.95;14.13;;;5.50;65.50;;;-142.21;100.00;112049.66;6276571;22;20471;-81
2022/01/25 09:22:06;;;;;;;24.10;17.60;;;5.40;66.00;;;-142.21;100.00;112049.66;6276516;22;20202;-81
2022/01/25 09:24:37;;;;;;;22.33;16.40;;;5.30;66.90;;;-142.21;100.00;112049.66;6276295;22;20559;-80
2022/01/25 09:27:07;;;;;;;20.58;14.35;;;5.50;67.30;;;-142.21;100.00;112049.66;6276407;22;20223;-80
2022/01/25 09:29:35;;;;;;;26.85;18.75;;;5.40;67.00;;;-142.21;100.00;112049.66;6276611;22;20172;-81
2022/01/25 09:32:04;;;;;;;40.90;24.13;;;5.40;67.20;;;-142.21;100.00;112049.66;6249756;22;20271;-82
2022/01/25 09:34:31;;;;;;;37.25;23.67;;;5.40;67.90;;;-142.21;100.00;112049.66;6277997;22;20251;-81
2022/01/25 09:36:59;;;;;;;35.38;23.63;;;5.40;68.10;;;-142.21;100.00;112049.66;6278218;22;20181;-81
2022/01/25 09:39:26;;;;;;;33.63;23.13;;;5.40;68.60;;;-142.21;100.00;112049.66;6278244;22;20181;-82
2022/01/25 09:41:56;;;;;;;36.67;23.60;;;5.40;68.40;;;-142.21;100.00;112049.66;6278438;22;20243;-82
2022/01/25 09:44:24;;;;;;;39.35;24.45;;;5.40;68.00;;;-142.21;100.00;112049.66;6278540;22;20177;-82
2022/01/25 09:46:55;;;;;;;37.92;25.50;;;5.30;67.70;;;-142.21;100.00;112049.66;6278147;22;20212;-81
2022/01/25 09:49:23;;;;;;;36.90;24.45;;;5.30;68.50;;;-142.21;100.00;112049.66;6278484;22;20169;-80
2022/01/25 09:51:53;;;;;;;39.97;24.83;;;5.30;68.80;;;-142.21;100.00;112049.66;6277781;22;20201;-80
2022/01/25 09:54:23;;;;;;;45.47;26.48;;;5.20;69.70;;;-142.21;100.00;112049.66;6278660;22;20195;-82
2022/01/25 09:56:50;;;;;;;44.42;27.73;;;5.20;70.20;;;-142.21;100.00;112049.66;6278236;22;20177;-81
2022/01/25 09:59:19;;;;;;;41.20;26.52;;;5.10;70.00;;;-142.21;100.00;112049.66;6277909;22;20195;-82
2022/01/25 10:01:46;;;;;;;51.40;29.73;;;5.20;70.10;;;-142.21;100.00;112049.66;6277732;22;20173;-81
2022/01/25 10:04:32;;;;;;;42.70;27.35;;;5.10;70.40;;;-142.21;100.00;112049.66;6277535;22;20656;-81
2022/01/25 10:07:00;;;;;;;39.25;26.08;;;5.10;71.10;;;-142.21;100.00;112049.66;6277379;22;20176;-79
2022/01/25 10:09:29;;;;;;;48.60;29.25;;;5.10;70.80;;;-142.21;100.00;112049.66;6277190;22;20177;-79
2022/01/25 10:11:57;;;;;;;35.78;25.13;;;5.20;70.80;;;-142.21;100.00;112049.66;6279591;22;20296;-81
2022/01/25 10:14:28;;;;;;;41.47;28.15;;;5.30;70.70;;;-142.21;100.00;112049.66;6278841;22;20207;-79
2022/01/25 10:16:57;;;;;;;36.03;25.58;;;5.40;70.20;;;-142.21;100.00;112049.66;6278665;22;20176;-80
2022/01/25 10:19:28;;;;;;;38.28;27.85;;;5.50;69.90;;;-142.21;100.00;112049.66;6291540;22;20183;-82
2022/01/25 10:22:01;;;;;;;37.70;27.63;;;5.50;70.00;;;-142.21;100.00;112049.66;6296362;22;20165;-81
2022/01/25 10:24:31;;;;;;;43.38;28.25;;;5.60;69.90;;;-142.21;100.00;112049.66;6279669;22;20203;-81
2022/01/25 10:27:01;;;;;;;42.65;28.42;;;5.60;69.70;;;-142.21;100.00;112049.66;6298627;22;20160;-83
2022/01/25 10:29:34;;;;;;;41.90;28.08;;;5.60;71.00;;;-142.21;100.00;112049.66;6300344;22;20165;-82
2022/01/25 10:32:05;;;;;;;42.60;29.05;;;5.40;70.90;;;-142.21;100.00;112049.66;6288976;22;20192;-80
2022/01/25 10:34:38;;;;;;;41.72;28.08;;;5.40;71.10;;;-142.21;100.00;112049.66;6279090;22;20172;-80
2022/01/25 10:37:10;;;;;;;46.75;29.08;;;5.40;71.20;;;-142.21;100.00;112049.66;6278830;22;20172;-82
2022/01/25 10:39:42;;;;;;;37.08;26.52;;;5.40;71.30;;;-142.21;100.00;112049.66;6279004;22;20169;-80
2022/01/25 10:42:13;;;;;;;39.90;26.75;;;5.50;71.00;;;-142.21;100.00;112049.66;6279214;22;20226;-80
2022/01/25 10:44:50;;;;;;;40.17;28.48;;;5.70;70.30;;;-142.21;100.00;112049.66;6252171;22;20176;-79
2022/01/25 10:47:21;;;;;;;42.90;28.50;;;5.80;69.90;;;-142.21;100.00;112049.66;6277833;22;20719;-82
2022/01/25 10:49:51;;;;;;;42.03;28.05;;;5.80;69.80;;;-142.21;100.00;112049.66;6278481;22;20255;-80
2022/01/25 10:52:25;;;;;;;38.35;26.45;;;5.80;69.70;;;-142.21;100.00;112049.66;6278040;22;20193;-81
2022/01/25 10:54:53;;;;;;;37.90;26.88;;;5.90;69.40;;;-142.21;100.00;112049.66;6277727;22;20172;-80
2022/01/25 10:57:23;;;;;;;38.50;27.40;;;6.00;68.90;;;-142.21;100.00;112049.66;6277015;22;20876;-81
2022/01/25 11:00:01;;;;;;;38.03;27.70;;;5.90;68.60;;;-142.21;100.00;112049.66;6277902;22;20168;-81
2022/01/25 11:02:29;;;;;;;42.25;29.45;;;6.00;68.70;;;-142.21;100.00;112049.66;6278368;22;20215;-80
2022/01/25 11:05:06;;;;;;;36.67;26.42;;;6.10;68.70;;;-142.21;100.00;112049.66;6277848;22;20234;-79
2022/01/25 11:07:38;;;;;;;37.47;27.17;;;6.10;68.60;;;-142.21;100.00;112049.66;6277904;22;20546;-78
2022/01/25 11:10:27;;;;;;;35.33;26.13;;;6.10;68.10;;;-142.21;100.00;112049.66;6287872;22;20192;-79
2022/01/25 11:13:03;;;;;;;36.55;26.88;;;6.10;68.80;;;-142.21;100.00;112049.66;6277501;22;20177;-77
2022/01/25 11:15:32;;;;;;;39.28;28.80;;;6.20;68.80;;;-142.21;100.00;112049.66;6277405;22;20172;-78
2022/01/25 11:17:59;;;;;;;38.40;28.13;;;6.10;68.80;;;-142.21;100.00;112049.66;6276753;22;20236;-78
2022/01/25 11:20:28;;;;;;;39.47;27.10;;;5.90;69.20;;;-142.21;100.00;112049.66;6275453;22;20183;-78
2022/01/25 11:22:57;;;;;;;36.53;26.50;;;6.10;69.50;;;-142.21;100.00;112049.66;6276841;22;20195;-76